KVYS/VYS METAR and TAF weather

Enter ICAO airport designator
Station Type Date Time Source
KVYS METAR 2019/12/11 11:55 UTC NOAA

KVYS 111155Z AUTO 22005KT 1 1/2SM -SN OVC015 M09/M10 A3035 RMK AO2 T10881105 11086 21110


Station Type Date Time Source
KVYS Decoded METAR 2019/12/11 11:55 UTC NOAA

Peru, Illinois Valley Regional-Walter A Duncan Field Airport, IL, United States (KVYS) 41-21-07N 089-09-11W
Dec 11, 2019 - 06:55 AM EST / 2019.12.11 1155 UTC
Wind: from the SW (220 degrees) at 6 MPH (5 KT):0
Visibility: 1 1/2 mile(s):0
Sky conditions: overcast
Weather: light snow
Temperature: 16.2 F (-8.8 C)
Windchill: 6 F (-14 C):1
Dew Point: 13.1 F (-10.5 C)
Relative Humidity: 87%
Pressure (altimeter): 30.35 in. Hg (1027 hPa)
ob: KVYS 111155Z AUTO 22005KT 1 1/2SM -SN OVC015 M09/M10 A3035 RMK AO2 T10881105 11086 21110
cycle: 12

Station Type Date Time Source
KVYS TAF UTC NOAA

Error!

Example: see airport list